createdAt,value
2024-02-04T00:03:30.288Z,75.54
2024-02-04T00:08:52.133Z,74.84
2024-02-04T00:14:14.041Z,74.40
2024-02-04T00:19:36.049Z,74.07
2024-02-04T00:24:57.972Z,73.43
2024-02-04T00:30:19.983Z,74.45
2024-02-04T00:35:41.851Z,75.28
2024-02-04T00:41:03.687Z,75.10
2024-02-04T00:46:25.414Z,76.17
2024-02-04T00:51:47.462Z,76.20
2024-02-04T00:57:09.305Z,76.30
2024-02-04T01:02:31.345Z,74.55
2024-02-04T01:07:53.052Z,75.02
2024-02-04T01:13:15.604Z,76.46
2024-02-04T01:18:37.553Z,76.87
2024-02-04T01:23:59.345Z,76.16
2024-02-04T01:29:21.094Z,76.86
2024-02-04T01:34:43.009Z,77.62
2024-02-04T01:40:05.938Z,77.73
2024-02-04T01:45:27.760Z,77.49
2024-02-04T01:50:54.100Z,78.30
2024-02-04T01:56:16.305Z,78.72
2024-02-04T02:01:38.478Z,78.65
2024-02-04T02:07:00.653Z,78.91
2024-02-04T02:12:31.017Z,78.64
2024-02-04T02:18:13.306Z,79.08
2024-02-04T02:23:37.685Z,79.29
2024-02-04T02:28:59.562Z,79.40
2024-02-04T02:34:30.563Z,79.62
2024-02-04T02:40:09.866Z,78.69
2024-02-04T02:45:32.028Z,78.93
2024-02-04T02:50:55.002Z,78.60
2024-02-04T02:56:16.754Z,77.44
2024-02-04T03:01:41.679Z,77.32
2024-02-04T03:07:03.610Z,77.65
2024-02-04T03:12:25.400Z,77.72
2024-02-04T03:17:47.229Z,76.15
2024-02-04T03:23:09.930Z,76.56
2024-02-04T03:28:31.826Z,76.65
2024-02-04T03:33:53.826Z,74.53
2024-02-04T03:39:15.724Z,74.44
2024-02-04T03:44:37.453Z,73.79
2024-02-04T03:49:59.245Z,72.88
2024-02-04T03:55:21.172Z,70.85
2024-02-04T04:00:43.036Z,71.07
2024-02-04T04:06:05.144Z,70.98
2024-02-04T04:11:27.209Z,70.59
2024-02-04T04:16:49.020Z,70.04
2024-02-04T04:22:10.912Z,69.72
2024-02-04T04:27:32.833Z,69.27
2024-02-04T04:32:54.698Z,69.64
2024-02-04T04:38:16.524Z,70.13
2024-02-04T04:43:38.487Z,70.07
2024-02-04T04:49:00.412Z,69.04
2024-02-04T04:54:22.460Z,68.53
2024-02-04T04:59:44.335Z,67.64
2024-02-04T05:05:06.974Z,65.47
2024-02-04T05:10:28.872Z,67.02
2024-02-04T05:15:50.728Z,68.51
2024-02-04T05:21:12.820Z,67.90
2024-02-04T05:26:34.590Z,67.81
2024-02-04T05:31:56.327Z,68.39
2024-02-04T05:37:18.094Z,67.48
2024-02-04T05:42:39.850Z,67.76
2024-02-04T05:48:01.678Z,67.38
2024-02-04T05:53:23.532Z,67.26
2024-02-04T05:58:45.315Z,68.33
2024-02-04T06:04:07.250Z,68.30
2024-02-04T06:09:29.162Z,69.10
2024-02-04T06:14:50.978Z,68.85
2024-02-04T06:20:12.843Z,68.99
2024-02-04T06:25:34.690Z,68.34
2024-02-04T06:30:56.735Z,68.74
2024-02-04T06:36:18.654Z,69.57
2024-02-04T06:41:40.439Z,69.15
2024-02-04T06:47:02.255Z,69.71
2024-02-04T06:52:24.023Z,69.57
2024-02-04T06:57:45.891Z,70.67
2024-02-04T07:03:07.774Z,71.55
2024-02-04T07:08:29.592Z,71.82
2024-02-04T07:13:51.407Z,71.91
2024-02-04T07:19:13.269Z,72.04
2024-02-04T07:24:35.136Z,71.11
2024-02-04T07:29:56.914Z,70.34
2024-02-04T07:35:18.701Z,70.28
2024-02-04T07:40:40.538Z,69.63
2024-02-04T07:46:05.416Z,69.07
2024-02-04T07:51:27.864Z,69.44
2024-02-04T07:56:49.723Z,69.08
2024-02-04T08:02:11.557Z,69.86
2024-02-04T08:07:33.710Z,70.27
2024-02-04T08:12:55.624Z,70.08
2024-02-04T08:18:17.707Z,70.62
2024-02-04T08:23:39.648Z,70.88
2024-02-04T08:29:01.616Z,71.15
2024-02-04T08:34:23.601Z,70.01
2024-02-04T08:39:45.399Z,70.74
2024-02-04T08:45:07.669Z,69.61
2024-02-04T08:50:30.160Z,70.57
2024-02-04T08:55:53.458Z,70.93
2024-02-04T09:01:15.717Z,70.53
2024-02-04T09:06:37.732Z,70.16
2024-02-04T09:11:59.540Z,69.54
2024-02-04T09:17:21.264Z,68.77
2024-02-04T09:22:43.141Z,68.74
2024-02-04T09:28:05.352Z,68.05
2024-02-04T09:33:27.399Z,67.86
2024-02-04T09:38:49.302Z,67.20
2024-02-04T09:44:12.189Z,66.98
2024-02-04T09:49:34.262Z,67.43
2024-02-04T09:55:03.552Z,67.52
2024-02-04T10:00:37.358Z,67.67
2024-02-04T10:05:59.568Z,66.82
2024-02-04T10:11:21.686Z,66.83
2024-02-04T10:22:22.912Z,66.61
2024-02-04T10:27:50.293Z,66.14
2024-02-04T10:33:12.189Z,66.97
2024-02-04T10:38:34.430Z,66.96
2024-02-04T10:43:57.791Z,66.91
2024-02-04T10:49:29.814Z,66.49
2024-02-04T10:54:56.280Z,66.46
2024-02-04T11:00:22.140Z,66.76
2024-02-04T11:11:40.871Z,68.58
2024-02-04T11:17:56.942Z,70.35
2024-02-04T11:35:19.949Z,73.01
2024-02-04T11:40:55.020Z,73.79
2024-02-04T11:57:57.037Z,78.98
2024-02-04T12:03:44.979Z,79.71
2024-02-04T12:09:25.929Z,80.10
2024-02-04T12:14:49.972Z,80.61
2024-02-04T12:26:03.332Z,80.92
2024-02-04T12:37:07.031Z,80.30
2024-02-04T12:42:34.983Z,79.92
2024-02-04T12:53:40.070Z,80.45
2024-02-04T12:59:13.967Z,81.64
2024-02-04T13:16:06.973Z,81.88
2024-02-04T13:27:13.038Z,82.53
2024-02-04T13:32:50.051Z,82.56
2024-02-04T13:38:17.563Z,82.73
2024-02-04T13:43:39.339Z,81.53
2024-02-04T13:49:01.203Z,81.88
2024-02-04T13:54:26.219Z,81.42
2024-02-04T13:59:47.960Z,81.93
2024-02-04T14:05:09.915Z,82.12
2024-02-04T14:10:49.962Z,81.34
2024-02-04T14:21:59.627Z,81.23
2024-02-04T14:27:24.027Z,81.07
2024-02-04T14:32:52.220Z,80.85
2024-02-04T14:38:13.963Z,79.17
2024-02-04T14:43:39.121Z,79.30
2024-02-04T14:49:19.087Z,79.08
2024-02-04T14:54:43.986Z,77.73
2024-02-04T15:00:24.689Z,76.91
2024-02-04T15:05:46.498Z,77.25
2024-02-04T15:11:11.225Z,76.71
2024-02-04T15:16:33.387Z,76.31
2024-02-04T15:21:58.103Z,76.53
2024-02-04T15:27:26.329Z,74.99
2024-02-04T15:32:51.305Z,76.36
2024-02-04T15:38:22.080Z,77.41
2024-02-04T15:49:31.126Z,76.17
2024-02-04T15:54:56.182Z,76.01
2024-02-04T16:00:19.585Z,75.66
2024-02-04T16:05:44.734Z,74.59
2024-02-04T16:11:15.613Z,74.47
2024-02-04T16:16:44.366Z,74.57
2024-02-04T16:22:06.547Z,75.48
2024-02-04T16:27:31.270Z,75.30
2024-02-04T16:32:53.228Z,75.65
2024-02-04T16:38:15.080Z,75.71
2024-02-04T16:43:39.980Z,75.05
2024-02-04T16:49:01.945Z,76.13
2024-02-04T16:54:25.603Z,74.99
2024-02-04T16:59:52.753Z,75.94
2024-02-04T17:05:18.275Z,75.15
2024-02-04T17:10:47.017Z,75.03
2024-02-04T17:16:53.587Z,74.83
2024-02-04T17:22:17.749Z,75.16
2024-02-04T17:27:41.195Z,74.07
2024-02-04T17:33:03.299Z,75.76
2024-02-04T17:38:25.136Z,75.39
2024-02-04T17:49:44.431Z,74.03
2024-02-04T17:55:07.467Z,74.49
2024-02-04T18:00:29.257Z,74.16
2024-02-04T18:05:51.011Z,73.27
2024-02-04T18:11:19.590Z,73.68
2024-02-04T18:22:23.338Z,74.17
2024-02-04T18:27:45.239Z,73.75
2024-02-04T18:33:09.934Z,73.74
2024-02-04T18:38:31.782Z,73.65
2024-02-04T18:43:56.181Z,73.14
2024-02-04T18:54:57.246Z,73.00
2024-02-04T19:00:19.298Z,73.17
2024-02-04T19:05:43.983Z,72.29
2024-02-04T19:11:07.194Z,72.84
2024-02-04T19:22:08.379Z,73.79
2024-02-04T19:27:30.215Z,72.17
2024-02-04T19:32:54.127Z,71.05
2024-02-04T19:38:15.968Z,72.22
2024-02-04T19:43:37.778Z,72.30
2024-02-04T19:48:59.809Z,71.17
2024-02-04T19:54:21.638Z,72.23
2024-02-04T19:59:44.927Z,71.35
2024-02-04T20:05:07.327Z,72.50
2024-02-04T20:10:29.208Z,72.31
2024-02-04T20:15:51.113Z,72.71
2024-02-04T20:21:13.001Z,72.24
2024-02-04T20:26:38.937Z,73.73
2024-02-04T20:32:00.875Z,74.85
2024-02-04T20:37:22.769Z,74.04
2024-02-04T20:42:44.594Z,75.21
2024-02-04T20:48:06.947Z,75.58
2024-02-04T20:53:28.791Z,76.25
2024-02-04T20:58:50.566Z,75.87
2024-02-04T21:04:12.405Z,76.07
2024-02-04T21:09:34.298Z,74.59
2024-02-04T21:14:56.135Z,75.79
2024-02-04T21:20:17.908Z,76.19
2024-02-04T21:25:39.791Z,76.64
2024-02-04T21:31:01.730Z,76.17
2024-02-04T21:36:23.536Z,76.08
2024-02-04T21:41:45.484Z,76.98
2024-02-04T21:47:07.249Z,76.84
2024-02-04T21:52:28.999Z,76.81
2024-02-04T21:57:50.875Z,77.15
2024-02-04T22:03:12.745Z,76.09
2024-02-04T22:08:34.485Z,76.17
2024-02-04T22:13:56.199Z,75.43
2024-02-04T22:19:18.016Z,74.34
2024-02-04T22:24:39.937Z,74.66
2024-02-04T22:30:01.828Z,74.92
2024-02-04T22:35:23.737Z,75.14
2024-02-04T22:40:45.546Z,75.87
2024-02-04T22:46:08.495Z,75.76
2024-02-04T22:51:30.304Z,77.52
2024-02-04T22:56:52.056Z,77.90
2024-02-04T23:02:13.854Z,79.07
2024-02-04T23:07:43.643Z,80.08
2024-02-04T23:13:13.973Z,80.81
2024-02-04T23:18:36.275Z,81.81
2024-02-04T23:23:58.053Z,82.97
2024-02-04T23:29:19.879Z,83.48
2024-02-04T23:34:41.799Z,83.96
2024-02-04T23:40:04.036Z,84.98
2024-02-04T23:45:25.905Z,85.03
2024-02-04T23:50:47.655Z,85.53
2024-02-04T23:56:09.421Z,84.98
